Have a Safe July 4th! 

Flight Track Log - Related Links

Times and Time Zones

All times are in EDT time to prevent confusion due to time zone crossing. See the XOJ549 flight status page for this flight to view local times or setup timezone preferences in your user account.

Time Position Orientation Groundspeed Altitude Reporting Facility
EDT Latitude Longitude Course Direction KTS MPH feet Rate Location/Type
Sun 12:09:58 PM 38.1142 -85.8067 270° West 228 262 5,000  Level Kansas City Center
Sun 12:11:00 PM 38.0689 -85.8817 233° Southwest 259 298 9,400 2,419 Climbing Kansas City Center
Sun 12:12:02 PM 38.0228 -85.9686 236° Southwest 276 318 10,000 1,258 Climbing Kansas City Center
Sun 12:13:04 PM 38.0189 -86.0886 268° West 317 365 12,000 1,920 Climbing Kansas City Center
Sun 12:14:07 PM 38.0172 -86.2211 269° West 368 423 14,000 960 Climbing Indianapolis Center
Sun 12:15:00 PM 38.1714 -86.6128 270° West  Level Estimated
Sun 12:15:09 PM 38.0144 -86.3589 269° West 386 444 14,000  Level Indianapolis Center
Sun 12:16:11 PM 38.0122 -86.4872 269° West 369 425 14,200 1,268 Climbing Indianapolis Center
Sun 12:17:12 PM 38.0094 -86.6203 269° West 372 428 16,600 3,073 Climbing Indianapolis Center
Sun 12:18:14 PM 38.0067 -86.7958 269° West 405 466 20,500 3,145 Climbing Indianapolis Center
Sun 12:19:16 PM 37.9992 -86.9458 266° West 417 480 23,100 2,613 Climbing Indianapolis Center
Sun 12:20:18 PM 37.9861 -87.0975 264° West 425 489 25,900 2,371 Climbing Indianapolis Center
Sun 12:21:20 PM 37.9714 -87.2550 263° West 438 504 28,000 1,984 Climbing Indianapolis Center
Sun 12:22:22 PM 37.9575 -87.4167 264° West 453 521 30,000 1,839 Climbing Indianapolis Center
Sun 12:23:24 PM 37.9428 -87.5833 264° West 468 539 31,800 1,805 Climbing Indianapolis Center
Sun 12:24:25 PM 37.9286 -87.7508 264° West 475 547 33,700 1,623 Climbing Indianapolis Center
Sun 12:25:26 PM 37.9136 -87.9192 264° West 477 549 35,100 1,463 Climbing Kansas City Center
Sun 12:26:28 PM 37.8972 -88.0875 263° West 479 551 36,700 1,790 Climbing Kansas City Center
Sun 12:27:30 PM 37.8825 -88.2503 264° West 470 541 38,800 1,355 Climbing Kansas City Center
Sun 12:28:32 PM 37.8669 -88.4072 263° West 455 524 39,500 629 Climbing Kansas City Center
Sun 12:29:34 PM 37.8458 -88.5997 262° West 456 525 40,100 488 Climbing Kansas City Center
Sun 12:30:35 PM 37.8331 -88.7433 264° West 466 536 40,500 488 Climbing Kansas City Center
Sun 12:31:37 PM 37.8169 -88.9089 263° West 472 543 41,100 677 Climbing Kansas City Center
Sun 12:32:39 PM 37.7958 -89.1067 262° West 472 543 41,900 629 Climbing Kansas City Center
Sun 12:33:41 PM 37.7786 -89.2681 262° West 470 541 42,400 484 Climbing Kansas City Center
Sun 12:34:43 PM 37.7614 -89.4297 262° West 468 539 42,900 293 Climbing Kansas City Center
Sun 12:35:44 PM 37.7431 -89.5917 262° West 467 537 43,000 49 Climbing Kansas City Center
Sun 12:36:46 PM 37.7253 -89.7528 262° West 466 536 43,000  Level Kansas City Center
Sun 12:37:48 PM 37.7075 -89.9144 262° West 465 535 43,000  Level Kansas City Center
Sun 12:38:50 PM 37.6903 -90.0761 262° West 464 534 43,000  Level Kansas City Center
Sun 12:39:52 PM 37.6728 -90.2378 262° West 465 535 43,000  Level Kansas City Center
Sun 12:40:53 PM 37.6539 -90.4308 263° West 463 533 43,000  Level Kansas City Center
Sun 12:41:55 PM 37.6397 -90.5917 264° West 460 529 43,000  Level Kansas City Center
Sun 12:42:57 PM 37.6239 -90.7539 263° West 464 534 43,000  Level Kansas City Center
Sun 12:43:59 PM 37.6067 -90.9275 263° West 466 536 43,000  Level Kansas City Center
Sun 12:45:01 PM 37.5914 -91.0900 263° West 466 536 43,000  Level Kansas City Center
Sun 12:46:03 PM 37.5764 -91.2519 263° West 464 534 43,000  Level Kansas City Center
Sun 12:47:04 PM 37.5592 -91.4131 262° West 463 533 43,000  Level Kansas City Center
Sun 12:48:06 PM 37.5442 -91.5756 263° West 463 533 43,000  Level Kansas City Center
Sun 12:49:08 PM 37.5289 -91.7369 263° West 462 532 43,000  Level Kansas City Center
Sun 12:50:10 PM 37.5117 -91.8992 262° West 463 533 43,000  Level Kansas City Center
Sun 12:51:12 PM 37.4917 -92.0931 263° West 461 531 43,000  Level Kansas City Center
Sun 12:52:14 PM 37.4753 -92.2556 263° West 463 533 43,000  Level Kansas City Center
Sun 12:53:16 PM 37.4581 -92.4153 262° West 458 527 43,000  Level Kansas City Center
Sun 12:54:18 PM 37.4414 -92.5742 263° West 455 524 43,000  Level Kansas City Center
Sun 12:55:20 PM 37.4250 -92.7333 263° West 455 524 43,000  Level Kansas City Center
Sun 12:56:22 PM 37.4067 -92.8892 262° West 449 517 43,000  Level Kansas City Center
Sun 12:57:24 PM 37.3883 -93.0475 262° West 452 520 43,000  Level Kansas City Center
Sun 12:58:26 PM 37.3717 -93.2069 263° West 455 524 43,000  Level Kansas City Center
Sun 12:59:28 PM 37.3494 -93.3628 260° West 453 521 43,000  Level Kansas City Center
Sun 01:00:30 PM 37.2944 -93.5389 249° West 450 518 43,000  Level Kansas City Center
Sun 01:01:32 PM 37.2489 -93.6878 249° West 454 522 43,000  Level Kansas City Center
Sun 01:02:34 PM 37.2022 -93.8353 248° West 453 521 43,000  Level Kansas City Center
Sun 01:03:36 PM 37.1567 -93.9814 249° West 451 519 43,000  Level Kansas City Center
Sun 01:04:38 PM 37.1058 -94.1428 248° West 451 519 43,000  Level Kansas City Center
Sun 01:05:40 PM 37.0592 -94.2892 248° West 452 520 43,000  Level Kansas City Center
Sun 01:06:42 PM 37.0128 -94.4356 248° West 453 521 43,000  Level Kansas City Center
Sun 01:07:44 PM 36.9664 -94.5822 248° West 453 521 43,000  Level Kansas City Center
Sun 01:08:46 PM 36.9192 -94.7286 248° West 454 522 43,000  Level Kansas City Center
Sun 01:09:48 PM 36.8708 -94.8742 247° West 454 522 43,000  Level Kansas City Center
Sun 01:10:50 PM 36.8153 -95.0500 249° West 454 522 43,000  Level Kansas City Center
Sun 01:11:52 PM 36.7689 -95.1928 248° West 449 517 43,000  Level Kansas City Center
Sun 01:12:54 PM 36.7219 -95.3344 248° West 446 513 43,000  Level Kansas City Center
Sun 01:13:56 PM 36.6761 -95.4747 248° West 443 510 43,000  Level Kansas City Center
Sun 01:14:58 PM 36.6308 -95.6147 248° West 442 509 43,000  Level Kansas City Center
Sun 01:16:00 PM 36.5742 -95.7817 247° West 441 507 43,000  Level Kansas City Center
Sun 01:17:02 PM 36.5275 -95.9211 247° West 440 506 43,000  Level Kansas City Center
Sun 01:18:04 PM 36.4808 -96.0597 247° West 437 503 43,000  Level Kansas City Center
Sun 01:19:06 PM 36.4344 -96.1983 247° West 435 501 43,000  Level Kansas City Center
Sun 01:20:08 PM 36.3894 -96.3372 248° West 434 499 43,000  Level Kansas City Center
Sun 01:21:10 PM 36.3753 -96.4825 263° West 426 490 43,000  Level Kansas City Center
Sun 01:22:12 PM 36.3581 -96.6558 263° West 423 487 43,000  Level Kansas City Center
Sun 01:23:15 PM 36.3439 -96.7942 263° West 423 487 43,000  Level Kansas City Center
Sun 01:24:17 PM 36.3306 -96.9392 264° West 424 488 43,000  Level Kansas City Center
Sun 01:25:19 PM 36.3161 -97.0844 263° West 426 490 43,000  Level Kansas City Center
Sun 01:26:21 PM 36.3017 -97.2314 263° West 430 495 43,000  Level Kansas City Center
Sun 01:27:23 PM 36.2836 -97.4067 263° West 430 495 43,000  Level Kansas City Center
Sun 01:28:25 PM 36.2686 -97.5528 263° West 430 495 43,000  Level Kansas City Center
Sun 01:29:27 PM 36.2533 -97.6992 263° West 432 497 43,000  Level Kansas City Center
Sun 01:30:29 PM 36.2381 -97.8456 263° West 431 496 43,000  Level Kansas City Center
Sun 01:31:31 PM 36.2222 -97.9919 262° West 431 496 43,000  Level Kansas City Center
Sun 01:32:33 PM 36.2039 -98.1675 263° West 431 496 43,000  Level Kansas City Center
Sun 01:33:35 PM 36.1839 -98.3175 261° West 436 502 43,000 97 Level Kansas City Center
Sun 01:34:37 PM 36.1689 -98.4633 263° West 432 497 43,200 387 Climbing Kansas City Center
Sun 01:35:39 PM 36.1517 -98.6083 262° West 429 494 43,800 484 Climbing Kansas City Center
Sun 01:36:41 PM 36.1353 -98.7533 262° West 428 493 44,200 387 Climbing Kansas City Center
Sun 01:37:43 PM 36.1164 -98.9250 262° West 423 487 44,600 339 Climbing Kansas City Center
Sun 01:38:45 PM 36.0994 -99.0672 262° West 421 484 44,900 194 Climbing Kansas City Center
Sun 01:39:47 PM 36.0839 -99.2078 262° West 416 479 45,000 48 Climbing Kansas City Center
Sun 01:40:49 PM 36.0669 -99.3506 262° West 418 481 45,000  Level Kansas City Center
Sun 01:41:51 PM 36.0494 -99.5042 262° West 422 486 45,000  Level Kansas City Center
Sun 01:42:53 PM 36.0317 -99.6439 261° West 427 491 45,000  Level Kansas City Center
Sun 01:43:55 PM 36.0131 -99.7961 261° West 428 493 45,000  Level Kansas City Center
Sun 01:44:57 PM 35.9944 -99.9414 261° West 428 493 45,000  Level Kansas City Center
Sun 01:45:59 PM 35.9728 -100.1158 261° West 430 495 45,000  Level Kansas City Center
Sun 01:47:01 PM 35.9550 -100.2608 261° West 429 494 45,000  Level Kansas City Center
Sun 01:47:55 PM 35.9408 -100.3767 261° West 427 491 45,000  Level Albuquerque Center
Sun 01:48:57 PM 35.9219 -100.5203 261° West 426 490 45,000  Level Albuquerque Center
Sun 01:49:59 PM 35.9006 -100.6892 261° West 421 484 45,000  Level Albuquerque Center
Sun 01:51:01 PM 35.8811 -100.8294 260° West 418 481 45,000  Level Albuquerque Center
Sun 01:52:03 PM 35.8631 -100.9689 261° West 416 479 45,000  Level Albuquerque Center
Sun 01:53:05 PM 35.8436 -101.1086 260° West 415 478 45,000  Level Albuquerque Center
Sun 01:54:07 PM 35.8250 -101.2478 261° West 415 478 45,000  Level Albuquerque Center
Sun 01:55:09 PM 35.8069 -101.3864 261° West 413 475 45,000  Level Albuquerque Center
Sun 01:56:11 PM 35.7778 -101.5531 258° West 418 481 45,000  Level Albuquerque Center
Sun 01:57:13 PM 35.7528 -101.6917 258° West 418 481 45,000  Level Albuquerque Center
Sun 01:58:15 PM 35.7283 -101.8319 258° West 421 484 45,000  Level Albuquerque Center
Sun 01:59:17 PM 35.7039 -101.9725 258° West 424 488 45,000  Level Albuquerque Center
Sun 02:00:19 PM 35.6786 -102.1106 257° West 420 483 45,000  Level Albuquerque Center
Sun 02:01:21 PM 35.6475 -102.2794 257° West 424 488 45,000  Level Albuquerque Center
Sun 02:02:23 PM 35.6214 -102.4197 257° West 424 488 45,000  Level Albuquerque Center
Sun 02:03:25 PM 35.5967 -102.5586 258° West 421 484 45,000  Level Albuquerque Center
Sun 02:04:27 PM 35.5703 -102.6997 257° West 425 489 45,000  Level Albuquerque Center
Sun 02:05:30 PM 35.5397 -102.8658 257° West 425 489 45,000  Level Albuquerque Center
Sun 02:06:32 PM 35.5119 -103.0075 256° West 424 488 45,000  Level Albuquerque Center
Sun 02:07:34 PM 35.4872 -103.1492 258° West 423 487 45,000  Level Albuquerque Center
Sun 02:08:36 PM 35.4597 -103.2894 257° West 421 484 45,000  Level Albuquerque Center
Sun 02:09:38 PM 35.4331 -103.4297 257° West 420 483 45,000  Level Albuquerque Center
Sun 02:10:40 PM 35.4064 -103.5689 257° West 417 480 45,000  Level Albuquerque Center
Sun 02:11:42 PM 35.3792 -103.7083 257° West 418 481 45,000  Level Albuquerque Center
Sun 02:12:44 PM 35.3475 -103.8717 257° West 420 483 45,000  Level Albuquerque Center
Sun 02:13:46 PM 35.3217 -104.0069 257° West 421 484 45,000  Level Albuquerque Center
Sun 02:14:48 PM 35.2936 -104.1467 256° West 422 486 45,000  Level Albuquerque Center
Sun 02:15:50 PM 35.2658 -104.2842 256° West 420 483 45,000  Level Albuquerque Center
Sun 02:16:52 PM 35.2392 -104.4192 256° West 414 476 45,000  Level Albuquerque Center
Sun 02:17:54 PM 35.2122 -104.5528 256° West 409 471 45,000  Level Albuquerque Center
Sun 02:18:56 PM 35.1783 -104.7108 255° West 408 470 45,000  Level Albuquerque Center
Sun 02:19:58 PM 35.1511 -104.8456 256° West 407 468 45,000  Level Albuquerque Center
Sun 02:20:59 PM 35.1239 -104.9808 256° West 406 467 45,000  Level Albuquerque Center
Sun 02:22:01 PM 35.0992 -105.1139 257° West 402 463 45,000  Level Albuquerque Center
Sun 02:23:03 PM 35.0806 -105.2497 261° West 402 463 45,000  Level Albuquerque Center
Sun 02:24:05 PM 35.0603 -105.3856 260° West 403 464 45,000  Level Albuquerque Center
Sun 02:25:07 PM 35.0353 -105.5433 259° West 403 464 45,000  Level Albuquerque Center
Sun 02:26:09 PM 35.0136 -105.6811 259° West 408 470 45,000  Level Albuquerque Center
Sun 02:27:11 PM 34.9931 -105.8200 260° West 411 473 45,000  Level Albuquerque Center
Sun 02:28:13 PM 34.9728 -105.9417 259° West 411 473 45,000  Level Albuquerque Center
Sun 02:29:15 PM 34.9506 -106.0783 259° West 411 473 45,000  Level Albuquerque Center
Sun 02:30:17 PM 34.9244 -106.2419 259° West 410 472 45,000  Level Albuquerque Center
Sun 02:31:19 PM 34.9025 -106.3778 259° West 409 471 45,000  Level Albuquerque Center
Sun 02:32:21 PM 34.8806 -106.5144 259° West 409 471 45,000  Level Albuquerque Center
Sun 02:33:22 PM 34.8586 -106.6519 259° West 413 475 45,000  Level Albuquerque Center
Sun 02:34:24 PM 34.8342 -106.7897 258° West 405 466 45,000  Level Albuquerque Center
Sun 02:35:26 PM 34.8122 -106.9292 259° West 413 475 45,000  Level Albuquerque Center
Sun 02:36:28 PM 34.7889 -107.0656 258° West 411 473 45,000  Level Albuquerque Center
Sun 02:37:30 PM 34.7675 -107.2011 259° West 406 467 45,000  Level Albuquerque Center
Sun 02:38:32 PM 34.7439 -107.3358 258° West 406 467 45,000  Level Albuquerque Center
Sun 02:39:34 PM 34.7172 -107.4972 259° West 406 467 45,000  Level Albuquerque Center
Sun 02:40:36 PM 34.6944 -107.6314 258° West 405 466 45,000  Level Albuquerque Center
Sun 02:41:38 PM 34.6719 -107.7653 258° West 405 466 45,000  Level Albuquerque Center
Sun 02:42:40 PM 34.6481 -107.8997 258° West 407 468 45,000  Level Albuquerque Center
Sun 02:43:42 PM 34.6250 -108.0347 258° West 408 470 45,000  Level Albuquerque Center
Sun 02:44:44 PM 34.6006 -108.1692 258° West 408 470 45,000  Level Albuquerque Center
Sun 02:45:46 PM 34.5719 -108.3319 258° West 411 473 45,000  Level Albuquerque Center
Sun 02:46:48 PM 34.5475 -108.4661 258° West 409 471 45,000  Level Albuquerque Center
Sun 02:47:50 PM 34.5219 -108.6103 258° West 407 468 45,000  Level Albuquerque Center
Sun 02:48:52 PM 34.4983 -108.7408 258° West 410 472 45,000  Level Albuquerque Center
Sun 02:49:54 PM 34.4717 -108.8911 258° West 410 472 45,000  Level Albuquerque Center
Sun 02:50:56 PM 34.4475 -109.0200 257° West 409 471 45,000  Level Albuquerque Center
Sun 02:51:58 PM 34.4247 -109.1478 258° West 408 470 45,000  Level Albuquerque Center
Sun 02:52:59 PM 34.4192 -109.3033 268° West 411 473 45,000  Level Albuquerque Center
Sun 02:54:01 PM 34.4144 -109.4333 268° West 406 467 45,000  Level Albuquerque Center
Sun 02:55:03 PM 34.4089 -109.5883 268° West 410 472 45,000  Level Albuquerque Center
Sun 02:56:05 PM 34.4033 -109.7192 267° West 409 471 45,000  Level Albuquerque Center
Sun 02:57:08 PM 34.3967 -109.8736 267° West 410 472 45,000  Level Albuquerque Center
Sun 02:58:10 PM 34.3906 -110.0042 267° West 407 468 45,000  Level Albuquerque Center
Sun 02:59:12 PM 34.3844 -110.1581 267° West 409 471 45,000  Level Albuquerque Center
Sun 03:00:14 PM 34.3783 -110.2931 267° West 414 476 45,000  Level Albuquerque Center
Sun 03:01:16 PM 34.3728 -110.4494 268° West 422 486 45,000  Level Albuquerque Center
Sun 03:02:18 PM 34.3678 -110.5883 268° West 418 481 45,000  Level Albuquerque Center
Sun 03:03:20 PM 34.3606 -110.7244 266° West 411 473 45,000  Level Albuquerque Center
Sun 03:04:22 PM 34.3494 -110.8603 264° West 409 471 45,000  Level Albuquerque Center
Sun 03:05:24 PM 34.3458 -110.9961 268° West 406 467 45,000  Level Albuquerque Center
Sun 03:06:26 PM 34.3414 -111.1325 268° West 407 468 45,000  Level Albuquerque Center
Sun 03:07:28 PM 34.3361 -111.2961 268° West 408 470 45,000  Level Albuquerque Center
Sun 03:08:30 PM 34.3306 -111.4339 267° West 412 474 45,000  Level Albuquerque Center
Sun 03:09:32 PM 34.3269 -111.5717 268° West 413 475 45,000  Level Albuquerque Center
Sun 03:10:34 PM 34.3217 -111.7092 267° West 413 475 45,000  Level Albuquerque Center
Sun 03:11:36 PM 34.3167 -111.8475 268° West 416 479 45,000  Level Albuquerque Center
Sun 03:12:39 PM 34.3106 -112.0128 267° West 416 479 45,000  Level Albuquerque Center
Sun 03:13:41 PM 34.3056 -112.1500 268° West 413 475 45,000  Level Albuquerque Center
Sun 03:14:43 PM 34.2994 -112.2869 267° West 412 474 45,000  Level Albuquerque Center
Sun 03:15:45 PM 34.2942 -112.4242 267° West 411 473 45,000  Level Albuquerque Center
Sun 03:17:18 PM 34.2858 -112.6392 267° West 419 482 45,000  Level Los Angeles Center
Sun 03:17:49 PM 34.2817 -112.7328 267° West 421 484 45,000  Level Albuquerque Center
Sun 03:18:51 PM 34.2756 -112.8739 267° West 421 484 45,000  Level Albuquerque Center
Sun 03:19:53 PM 34.2689 -113.0144 267° West 422 486 45,000  Level Albuquerque Center
Sun 03:20:55 PM 34.2622 -113.1553 267° West 421 484 45,000  Level Albuquerque Center
Sun 03:21:57 PM 34.2569 -113.2936 267° West 417 480 45,000  Level Albuquerque Center
Sun 03:22:59 PM 34.2478 -113.4592 266° West 413 475 45,000  Level Albuquerque Center
Sun 03:24:01 PM 34.2414 -113.5978 267° West 414 476 45,000  Level Albuquerque Center
Sun 03:25:03 PM 34.2342 -113.7278 266° West 415 478 45,000  Level Albuquerque Center
Sun 03:26:05 PM 34.2264 -113.8694 266° West 420 483 45,000  Level Albuquerque Center
Sun 03:27:07 PM 34.2169 -114.0417 266° West 426 490 45,000 -97 Level Albuquerque Center
Sun 03:28:09 PM 34.2064 -114.1864 265° West 428 493 44,800 -629 Descending Albuquerque Center
Sun 03:29:11 PM 34.1872 -114.3253 261° West 423 487 43,700 -1,021 Descending Albuquerque Center
Sun 03:29:43 PM 34.1792 -114.3939 262° West 416 479 43,200 -957 Descending Los Angeles Center
Sun 03:30:45 PM 34.1603 -114.5261 260° West 404 465 42,200 -871 Descending Los Angeles Center
Sun 03:31:47 PM 34.1439 -114.6347 260° West 409 471 41,400 -1,056 Descending Los Angeles Center
Sun 03:32:50 PM 34.1167 -114.8222 260° West 407 468 40,000 -1,152 Descending Los Angeles Center
Sun 03:33:52 PM 34.0978 -114.9567 260° West 407 468 39,000 -968 Descending Los Angeles Center
Sun 03:34:54 PM 34.0775 -115.0922 260° West 410 472 38,000 -968 Descending Los Angeles Center
Sun 03:36:00 PM 34.0537 -115.2427 259° West  Level FlightAware Approximate
Sun 03:36:58 PM 34.0383 -115.3539 259° West 398 458 36,000  Level Los Angeles Center
Sun 03:38:00 PM 34.0142 -115.5139 260° West 404 465 33,400 -1,694 Descending Los Angeles Center
Sun 03:39:02 PM 33.9942 -115.6461 260° West 404 465 32,500 -672 Descending Los Angeles Center
Sun 03:40:05 PM 33.9733 -115.7783 259° West 403 464 32,000 -219 Descending Los Angeles Center
Sun 03:41:19 PM 33.9528 -115.9106 259° West 404 465 32,000 -574 Level Los Angeles Center
Sun 03:42:21 PM 33.9275 -116.0694 259° West 404 465 30,700 -2,371 Descending Los Angeles Center
Sun 03:43:23 PM 33.9017 -116.2322 259° West 412 474 27,100 -2,855 Descending Los Angeles Center
Sun 03:44:25 PM 33.8842 -116.3397 259° West 413 475 24,800 -2,688 Descending Los Angeles Center
Sun 03:45:28 PM 33.8742 -116.4933 266° West 395 455 21,500 -2,928 Descending Los Angeles Center
Sun 03:46:30 PM 33.8797 -116.6242 273° West 395 455 18,700 -2,613 Descending Los Angeles Center
Sun 03:47:32 PM 33.8847 -116.7489 273° West 380 437 16,100 -2,274 Descending Los Angeles Center
Sun 03:48:34 PM 33.8864 -116.8672 271° West 358 412 14,000 -1,065 Descending Los Angeles Center
Sun 03:49:36 PM 33.8692 -116.9889 260° West 312 359 13,900 -48 Descending Los Angeles Center
Sun 03:50:38 PM 33.8608 -117.0853 264° West 299 344 13,900 63 Level Los Angeles Center
Sun 03:51:12 PM 33.8833 -117.1333 299° West 251 289 14,000 -1,011 Climbing Southern California TRACON
Sun 03:52:13 PM 33.9000 -117.2167 284° West 262 302 12,300 -1,488 Descending Southern California TRACON
Sun 03:53:13 PM 33.8833 -117.3000 256° West 243 280 11,000 -1,253 Descending Southern California TRACON
Sun 03:53:44 PM 33.8669 -117.3303 237° Southwest 238 274 10,400 -1,340 Descending Los Angeles Center
Sun 03:54:47 PM 33.8419 -117.4006 247° West 230 265 8,900 -1,051 Descending Los Angeles Center
Sun 03:56:01 PM 33.8156 -117.4819 249° West 220 253 8,000 -926 Descending Los Angeles Center
Sun 03:57:03 PM 33.7969 -117.5433 250° West 202 232 6,800 -677 Descending Los Angeles Center
Sun 03:58:05 PM 33.7800 -117.6261 256° West 212 244 6,600 -203 Descending Los Angeles Center
Sun 03:59:01 PM 33.7833 -117.7000 273° West 217 250 6,400 -797 Descending Southern California TRACON
Sun 04:00:13 PM 33.8167 -117.7667 301° West 233 268 4,900 -700 Descending Southern California TRACON
Sun 04:01:01 PM 33.8500 -117.8167 309° West 204 235 5,000 53 Climbing Southern California TRACON
Sun 04:02:07 PM 33.8833 -117.7833 40° Northeast 178 205 5,000 -476 Level Southern California TRACON
Sun 04:03:07 PM 33.8500 -117.7500 140° Southeast 185 213 4,000 -694 Descending Southern California TRACON
Sun 04:04:08 PM 33.8167 -117.7833 220° Southwest 151 174 3,600 -893 Descending Southern California TRACON
Sun 04:05:08 PM 33.7833 -117.8000 203° Southwest 144 166 2,200 -1,000 Descending Southern California TRACON
Sun 04:06:08 PM 33.7500 -117.8167 203° Southwest 119 137 1,600 -595 Descending Southern California TRACON
Sun 04:07:09 PM 33.7167 -117.8333 203° Southwest 124 143 1,000 -614 Descending Southern California TRACON
Sun 04:08:15 PM 33.6833 -117.8667 220° Southwest 120 138 300 -636 Descending Southern California TRACON

Login

Don't have an account? Register now (free) for customized features, flight alerts, and more!